createdAt,value
2022-08-10T00:01:08.203Z,2.00
2022-08-10T00:04:09.586Z,2.10
2022-08-10T00:07:22.397Z,2.20
2022-08-10T00:10:24.152Z,2.00
2022-08-10T00:13:26.051Z,2.15
2022-08-10T00:16:27.405Z,1.92
2022-08-10T00:19:28.739Z,1.92
2022-08-10T00:22:57.733Z,1.92
2022-08-10T00:25:59.638Z,1.98
2022-08-10T00:29:00.941Z,2.20
2022-08-10T00:32:02.249Z,2.03
2022-08-10T00:35:03.806Z,1.70
2022-08-10T00:38:05.079Z,1.95
2022-08-10T00:41:06.361Z,2.03
2022-08-10T00:44:07.653Z,2.08
2022-08-10T00:47:35.628Z,2.10
2022-08-10T00:50:31.398Z,2.00
2022-08-10T00:53:32.695Z,1.90
2022-08-10T00:57:07.871Z,1.90
2022-08-10T00:59:59.571Z,2.10
2022-08-10T01:03:01.584Z,2.13
2022-08-10T01:06:09.002Z,2.25
2022-08-10T01:09:19.297Z,2.00
2022-08-10T01:12:47.587Z,2.03
2022-08-10T01:15:53.349Z,2.00
2022-08-10T01:19:03.731Z,2.00
2022-08-10T01:25:09.261Z,2.00
2022-08-10T01:28:29.351Z,2.33
2022-08-10T01:31:33.819Z,1.75
2022-08-10T01:34:49.607Z,2.30
2022-08-10T01:37:54.272Z,2.03
2022-08-10T01:41:03.154Z,2.28
2022-08-10T01:44:04.458Z,2.00
2022-08-10T01:47:27.466Z,2.05
2022-08-10T01:50:33.297Z,2.08
2022-08-10T01:53:40.855Z,2.05
2022-08-10T01:56:45.154Z,1.77
2022-08-10T01:59:54.572Z,2.40
2022-08-10T02:03:04.604Z,2.03
2022-08-10T02:06:07.154Z,2.35
2022-08-10T02:09:08.925Z,2.25
2022-08-10T02:12:12.006Z,2.10
2022-08-10T02:15:16.521Z,1.80
2022-08-10T02:18:19.142Z,2.05
2022-08-10T02:21:22.506Z,2.00
2022-08-10T02:24:25.766Z,1.83
2022-08-10T02:27:27.557Z,1.98
2022-08-10T02:30:30.362Z,2.00
2022-08-10T02:33:32.138Z,1.90
2022-08-10T02:36:41.505Z,2.13
2022-08-10T02:39:42.889Z,2.40
2022-08-10T02:45:26.305Z,2.20
2022-08-10T02:46:21.009Z,2.28
2022-08-10T02:49:26.408Z,2.00
2022-08-10T02:52:45.345Z,2.00
2022-08-10T02:55:49.416Z,2.33
2022-08-10T02:59:00.780Z,2.20
2022-08-10T03:02:03.515Z,2.38
2022-08-10T03:05:07.254Z,1.92
2022-08-10T03:08:10.228Z,2.13
2022-08-10T03:11:16.074Z,2.25
2022-08-10T03:14:37.678Z,2.00
2022-08-10T03:17:40.091Z,2.22
2022-08-10T03:20:42.656Z,2.30
2022-08-10T03:23:45.022Z,2.35
2022-08-10T03:26:46.421Z,2.28
2022-08-10T03:30:29.469Z,2.00
2022-08-10T03:33:11.809Z,1.92
2022-08-10T03:36:43.620Z,2.05
2022-08-10T03:39:34.596Z,2.05
2022-08-10T03:42:37.064Z,1.85
2022-08-10T03:45:54.143Z,2.30
2022-08-10T03:48:58.282Z,2.05
2022-08-10T03:52:02.369Z,2.10
2022-08-10T03:55:04.109Z,2.20
2022-08-10T03:58:05.674Z,2.35
2022-08-10T04:01:07.430Z,2.10
2022-08-10T04:04:13.722Z,2.00
2022-08-10T04:07:16.795Z,2.30
2022-08-10T04:10:18.082Z,2.00
2022-08-10T04:13:19.388Z,2.22
2022-08-10T04:16:20.686Z,2.13
2022-08-10T04:19:23.003Z,2.10
2022-08-10T04:22:25.726Z,1.92
2022-08-10T04:25:27.223Z,2.33
2022-08-10T04:28:28.635Z,2.40
2022-08-10T04:31:30.831Z,2.35
2022-08-10T04:34:32.694Z,2.35
2022-08-10T04:37:34.683Z,2.63
2022-08-10T04:40:36.418Z,2.22
2022-08-10T04:43:37.895Z,2.70
2022-08-10T04:46:55.214Z,2.42
2022-08-10T04:49:58.043Z,2.15
2022-08-10T04:53:00.541Z,2.65
2022-08-10T04:56:01.963Z,2.40
2022-08-10T04:59:03.798Z,2.40
2022-08-10T05:02:21.591Z,2.47
2022-08-10T05:05:26.630Z,2.60
2022-08-10T05:08:28.025Z,2.47
2022-08-10T05:11:29.364Z,2.53
2022-08-10T05:14:30.713Z,2.20
2022-08-10T05:17:32.081Z,2.85
2022-08-10T05:20:33.404Z,2.22
2022-08-10T05:23:34.674Z,2.50
2022-08-10T05:26:40.551Z,2.38
2022-08-10T05:30:01.545Z,2.45
2022-08-10T05:33:08.535Z,2.42
2022-08-10T05:36:10.417Z,2.58
2022-08-10T05:39:12.318Z,2.63
2022-08-10T05:42:13.747Z,2.40
2022-08-10T05:45:20.277Z,2.47
2022-08-10T05:48:54.751Z,2.17
2022-08-10T05:51:43.217Z,2.35
2022-08-10T05:54:44.703Z,1.85
2022-08-10T05:57:46.531Z,2.70
2022-08-10T06:00:53.880Z,2.55
2022-08-10T06:03:59.641Z,2.80
2022-08-10T06:07:01.467Z,2.50
2022-08-10T06:10:02.890Z,2.13
2022-08-10T06:13:30.360Z,2.53
2022-08-10T06:16:36.065Z,2.40
2022-08-10T06:19:38.197Z,2.40
2022-08-10T06:22:39.566Z,2.13
2022-08-10T06:26:09.629Z,2.50
2022-08-10T06:29:07.662Z,2.33
2022-08-10T06:32:09.961Z,2.20
2022-08-10T06:35:11.378Z,2.30
2022-08-10T06:38:12.854Z,2.55
2022-08-10T06:41:19.868Z,2.03
2022-08-10T06:44:23.900Z,2.00
2022-08-10T06:47:51.210Z,2.10
2022-08-10T06:50:58.715Z,2.17
2022-08-10T06:54:02.812Z,1.95
2022-08-10T06:57:20.088Z,2.08
2022-08-10T07:00:22.660Z,2.10
2022-08-10T07:03:36.534Z,2.10
2022-08-10T07:06:41.625Z,2.10
2022-08-10T07:09:44.286Z,1.80
2022-08-10T07:12:47.540Z,1.80
2022-08-10T07:15:59.555Z,2.13
2022-08-10T07:19:02.741Z,1.80
2022-08-10T07:22:04.290Z,1.90
2022-08-10T07:25:06.873Z,1.83
2022-08-10T07:28:12.036Z,1.60
2022-08-10T07:31:33.045Z,1.73
2022-08-10T07:34:38.340Z,1.63
2022-08-10T07:37:41.086Z,1.52
2022-08-10T07:40:43.635Z,1.90
2022-08-10T07:43:46.350Z,1.80
2022-08-10T07:46:49.694Z,1.65
2022-08-10T07:49:52.366Z,1.73
2022-08-10T07:52:56.724Z,1.88
2022-08-10T07:56:04.178Z,1.75
2022-08-10T07:59:14.640Z,1.52
2022-08-10T08:02:23.739Z,1.75
2022-08-10T08:05:53.709Z,1.80
2022-08-10T08:08:47.312Z,1.73
2022-08-10T08:11:49.882Z,1.50
2022-08-10T08:14:52.804Z,1.55
2022-08-10T08:21:03.079Z,1.70
2022-08-10T08:24:31.967Z,1.65
2022-08-10T08:27:34.851Z,1.55
2022-08-10T08:30:37.386Z,1.55
2022-08-10T08:33:41.986Z,1.70
2022-08-10T08:36:44.447Z,1.73
2022-08-10T08:39:46.245Z,1.90
2022-08-10T08:43:08.691Z,1.92
2022-08-10T08:46:39.114Z,1.80
2022-08-10T08:50:05.171Z,1.73
2022-08-10T08:53:22.433Z,1.52
2022-08-10T08:59:33.093Z,1.40
2022-08-10T09:02:35.060Z,1.50
2022-08-10T09:05:58.483Z,1.60
2022-08-10T09:09:20.537Z,1.55
2022-08-10T09:12:39.264Z,1.60
2022-08-10T09:15:46.602Z,1.50
2022-08-10T09:19:06.583Z,1.42
2022-08-10T09:22:17.935Z,1.55
2022-08-10T09:25:21.664Z,1.52
2022-08-10T09:31:32.006Z,1.60
2022-08-10T09:36:25.985Z,1.55
2022-08-10T09:38:14.186Z,1.70
2022-08-10T09:41:35.968Z,1.60
2022-08-10T09:44:58.198Z,1.73
2022-08-10T09:48:18.767Z,1.75
2022-08-10T09:51:47.699Z,1.65
2022-08-10T09:55:03.777Z,1.80
2022-08-10T09:58:23.682Z,1.63
2022-08-10T10:02:00.457Z,1.73
2022-08-10T10:08:08.550Z,1.83
2022-08-10T10:11:28.732Z,1.98
2022-08-10T10:15:09.143Z,2.00
2022-08-10T10:18:13.274Z,1.67
2022-08-10T10:21:55.428Z,1.88
2022-08-10T10:25:50.016Z,1.73
2022-08-10T10:32:36.960Z,1.58
2022-08-10T10:35:43.510Z,1.63
2022-08-10T10:38:46.092Z,1.80
2022-08-10T10:42:14.640Z,1.98
2022-08-10T10:45:33.667Z,1.80
2022-08-10T10:48:37.200Z,1.50
2022-08-10T10:51:43.332Z,1.60
2022-08-10T10:54:56.192Z,1.52
2022-08-10T10:58:00.940Z,1.73
2022-08-10T11:01:03.098Z,1.73
2022-08-10T11:04:27.543Z,1.90
2022-08-10T11:07:35.746Z,1.50
2022-08-10T11:10:47.202Z,1.65
2022-08-10T11:14:25.880Z,1.77
2022-08-10T11:17:37.565Z,1.63
2022-08-10T11:20:43.738Z,1.70
2022-08-10T11:24:47.111Z,1.70
2022-08-10T11:27:21.972Z,1.73
2022-08-10T11:30:42.538Z,1.85
2022-08-10T11:34:11.734Z,1.55
2022-08-10T11:37:09.892Z,1.42
2022-08-10T11:40:24.407Z,1.55
2022-08-10T11:43:28.822Z,1.55
2022-08-10T11:46:38.631Z,1.65
2022-08-10T11:49:46.607Z,1.70
2022-08-10T11:52:57.802Z,1.70
2022-08-10T11:56:00.700Z,1.52
2022-08-10T11:59:24.684Z,1.60
2022-08-10T12:02:46.315Z,1.73
2022-08-10T12:05:55.001Z,1.70
2022-08-10T12:10:07.273Z,2.00
2022-08-10T12:15:24.455Z,1.70
2022-08-10T12:18:29.099Z,1.70
2022-08-10T12:21:30.411Z,1.70
2022-08-10T12:24:49.721Z,1.60
2022-08-10T12:27:53.405Z,1.60
2022-08-10T12:30:58.292Z,1.88
2022-08-10T12:34:11.648Z,1.70
2022-08-10T12:37:19.084Z,1.70
2022-08-10T12:40:36.990Z,1.50
2022-08-10T12:44:07.999Z,1.80
2022-08-10T12:47:22.517Z,1.67
2022-08-10T12:50:37.605Z,1.80
2022-08-10T12:53:59.432Z,1.70
2022-08-10T13:00:04.883Z,1.80
2022-08-10T13:03:09.975Z,1.88
2022-08-10T13:06:12.888Z,1.60
2022-08-10T13:09:14.966Z,1.70
2022-08-10T13:12:35.450Z,1.85
2022-08-10T13:15:50.434Z,1.55
2022-08-10T13:18:58.332Z,1.80
2022-08-10T13:22:02.738Z,1.73
2022-08-10T13:25:05.470Z,1.85
2022-08-10T13:28:37.630Z,1.60
2022-08-10T13:32:09.941Z,1.90
2022-08-10T13:34:55.083Z,1.80
2022-08-10T13:37:57.950Z,2.10
2022-08-10T13:40:59.466Z,1.83
2022-08-10T13:44:00.817Z,1.70
2022-08-10T13:47:02.389Z,2.05
2022-08-10T13:50:08.214Z,1.75
2022-08-10T13:53:15.184Z,1.70
2022-08-10T13:56:17.048Z,2.00
2022-08-10T13:59:19.341Z,1.83
2022-08-10T14:05:26.797Z,1.80
2022-08-10T14:08:31.065Z,2.10
2022-08-10T14:11:33.042Z,1.73
2022-08-10T14:14:34.658Z,1.80
2022-08-10T14:17:42.623Z,1.60
2022-08-10T14:20:48.048Z,1.73
2022-08-10T14:23:52.671Z,1.85
2022-08-10T14:27:14.401Z,1.70
2022-08-10T14:30:16.690Z,1.83
2022-08-10T14:33:19.278Z,2.08
2022-08-10T14:39:27.875Z,1.88
2022-08-10T14:42:36.491Z,1.73
2022-08-10T14:45:38.607Z,1.85
2022-08-10T14:48:41.207Z,1.90
2022-08-10T14:54:48.956Z,1.77
2022-08-10T14:58:19.173Z,1.92
2022-08-10T15:01:16.665Z,1.75
2022-08-10T15:04:22.081Z,1.90
2022-08-10T15:07:29.623Z,1.75
2022-08-10T15:10:31.230Z,1.80
2022-08-10T15:13:35.098Z,1.85
2022-08-10T15:16:37.508Z,2.03
2022-08-10T15:20:04.302Z,1.98
2022-08-10T15:23:29.808Z,2.15
2022-08-10T15:26:32.074Z,1.63
2022-08-10T15:29:34.669Z,2.03
2022-08-10T15:33:15.699Z,1.70
2022-08-10T15:36:41.879Z,1.75
2022-08-10T15:40:21.253Z,1.92
2022-08-10T15:43:25.169Z,1.92
2022-08-10T15:46:31.802Z,1.83
2022-08-10T15:49:45.207Z,1.80
2022-08-10T15:53:01.633Z,1.77
2022-08-10T15:56:07.869Z,1.73
2022-08-10T15:59:23.769Z,1.80
2022-08-10T16:02:27.383Z,1.85
2022-08-10T16:06:00.889Z,1.90
2022-08-10T16:10:23.698Z,1.92
2022-08-10T16:12:36.393Z,1.75
2022-08-10T16:15:38.270Z,2.00
2022-08-10T16:18:41.287Z,1.92
2022-08-10T16:21:42.791Z,1.92
2022-08-10T16:24:49.851Z,2.00
2022-08-10T16:27:51.815Z,1.90
2022-08-10T16:30:53.903Z,1.90
2022-08-10T16:34:00.117Z,1.90
2022-08-10T16:37:04.038Z,1.73
2022-08-10T16:40:10.034Z,1.85
2022-08-10T16:43:12.559Z,1.90
2022-08-10T16:46:19.454Z,1.77
2022-08-10T16:49:21.397Z,1.83
2022-08-10T16:52:23.722Z,1.75
2022-08-10T16:55:48.767Z,1.95
2022-08-10T16:58:51.784Z,1.50
2022-08-10T17:01:53.829Z,1.77
2022-08-10T17:08:04.324Z,2.30
2022-08-10T17:11:05.983Z,2.10
2022-08-10T17:14:08.268Z,2.13
2022-08-10T17:17:13.907Z,1.90
2022-08-10T17:20:31.636Z,2.13
2022-08-10T17:23:35.198Z,1.85
2022-08-10T17:26:38.268Z,2.00
2022-08-10T17:29:58.252Z,2.03
2022-08-10T17:33:03.442Z,1.90
2022-08-10T17:36:05.312Z,1.83
2022-08-10T17:39:08.401Z,1.95
2022-08-10T17:42:10.658Z,2.00
2022-08-10T17:45:46.008Z,1.90
2022-08-10T17:48:41.331Z,2.33
2022-08-10T17:51:43.451Z,2.13
2022-08-10T17:54:45.220Z,2.30
2022-08-10T17:57:47.007Z,2.00
2022-08-10T18:01:40.242Z,1.92
2022-08-10T18:04:26.391Z,2.08
2022-08-10T18:07:35.865Z,2.17
2022-08-10T18:10:38.116Z,2.05
2022-08-10T18:13:56.386Z,2.20
2022-08-10T18:16:58.819Z,2.60
2022-08-10T18:20:02.489Z,2.30
2022-08-10T18:23:04.872Z,2.38
2022-08-10T18:26:10.803Z,2.22
2022-08-10T18:29:22.917Z,2.35
2022-08-10T18:32:25.384Z,2.30
2022-08-10T18:35:35.029Z,2.20
2022-08-10T18:38:38.240Z,2.50
2022-08-10T18:42:00.623Z,2.28
2022-08-10T18:45:06.794Z,2.35
2022-08-10T18:48:10.656Z,2.20
2022-08-10T18:51:13.237Z,2.50
2022-08-10T18:54:39.743Z,2.28
2022-08-10T18:58:00.716Z,2.15
2022-08-10T19:01:21.054Z,2.30
2022-08-10T19:04:35.446Z,2.42
2022-08-10T19:07:48.802Z,2.38
2022-08-10T19:11:00.366Z,2.53
2022-08-10T19:14:14.606Z,2.35
2022-08-10T19:18:03.740Z,2.72
2022-08-10T19:20:58.168Z,2.38
2022-08-10T19:24:03.037Z,1.95
2022-08-10T19:27:14.085Z,2.42
2022-08-10T19:30:16.468Z,2.40
2022-08-10T19:33:22.007Z,2.33
2022-08-10T19:36:37.926Z,2.30
2022-08-10T19:39:50.629Z,2.55
2022-08-10T19:42:56.227Z,2.45
2022-08-10T19:46:03.089Z,2.33
2022-08-10T19:49:16.004Z,2.90
2022-08-10T19:52:23.404Z,2.20
2022-08-10T19:55:27.496Z,2.28
2022-08-10T19:58:45.486Z,2.22
2022-08-10T20:01:55.481Z,2.33
2022-08-10T20:05:13.130Z,2.47
2022-08-10T20:08:23.986Z,2.70
2022-08-10T20:11:45.779Z,2.53
2022-08-10T20:14:52.894Z,2.30
2022-08-10T20:18:17.214Z,2.35
2022-08-10T20:21:21.723Z,2.33
2022-08-10T20:24:28.191Z,2.40
2022-08-10T20:27:59.441Z,2.60
2022-08-10T20:31:12.588Z,2.60
2022-08-10T20:34:31.631Z,2.28
2022-08-10T20:38:03.466Z,2.83
2022-08-10T20:41:23.223Z,2.53
2022-08-10T20:44:39.836Z,2.40
2022-08-10T20:47:53.800Z,2.20
2022-08-10T20:50:57.544Z,2.20
2022-08-10T20:54:01.322Z,2.45
2022-08-10T20:57:55.135Z,2.67
2022-08-10T21:00:55.360Z,2.55
2022-08-10T21:04:11.278Z,2.58
2022-08-10T21:07:43.961Z,2.50
2022-08-10T21:11:04.017Z,2.75
2022-08-10T21:14:14.650Z,2.58
2022-08-10T21:17:34.651Z,2.80
2022-08-10T21:20:59.422Z,2.35
2022-08-10T21:24:03.719Z,2.67
2022-08-10T21:27:08.317Z,2.20
2022-08-10T21:30:20.179Z,2.47
2022-08-10T21:33:40.268Z,3.25
2022-08-10T21:36:43.756Z,2.50
2022-08-10T21:39:45.221Z,2.50
2022-08-10T21:43:08.214Z,2.55
2022-08-10T21:46:54.644Z,2.33
2022-08-10T21:50:25.507Z,2.67
2022-08-10T21:53:51.100Z,2.78
2022-08-10T21:57:30.083Z,2.78
2022-08-10T22:01:09.138Z,2.90
2022-08-10T22:04:29.504Z,2.60
2022-08-10T22:07:51.132Z,2.42
2022-08-10T22:11:14.003Z,2.33
2022-08-10T22:14:42.402Z,2.53
2022-08-10T22:18:04.994Z,2.42
2022-08-10T22:21:27.114Z,2.35
2022-08-10T22:25:19.822Z,2.35
2022-08-10T22:28:40.277Z,2.30
2022-08-10T22:32:24.609Z,2.70
2022-08-10T22:36:03.202Z,2.30
2022-08-10T22:40:10.068Z,2.40
2022-08-10T22:43:35.196Z,2.65
2022-08-10T22:46:55.610Z,2.40
2022-08-10T22:49:57.091Z,2.30
2022-08-10T22:53:07.223Z,2.38
2022-08-10T22:56:27.285Z,2.95
2022-08-10T22:59:30.866Z,2.63
2022-08-10T23:02:33.573Z,2.38
2022-08-10T23:05:37.876Z,2.22
2022-08-10T23:08:49.251Z,2.58
2022-08-10T23:11:53.758Z,2.58
2022-08-10T23:15:15.864Z,2.28
2022-08-10T23:18:39.320Z,2.30
2022-08-10T23:22:04.320Z,2.47
2022-08-10T23:25:06.706Z,2.33
2022-08-10T23:28:12.756Z,2.63
2022-08-10T23:31:15.862Z,2.35
2022-08-10T23:34:25.138Z,2.33
2022-08-10T23:37:30.777Z,2.70
2022-08-10T23:40:32.659Z,2.38
2022-08-10T23:44:00.751Z,2.13
2022-08-10T23:46:59.582Z,2.55
2022-08-10T23:50:03.246Z,2.30
2022-08-10T23:53:10.740Z,2.55
2022-08-10T23:56:16.656Z,1.95
2022-08-10T23:59:20.825Z,2.35
